Arcturus, Minnesota
Current Conditions -  °F | °C
As of 8:55 AM on Wednesday 22 Oct 2014 (Local Time) from KGPZ Reporting Station
Clear Clear  
Wind Chill: -1°   Ceiling: Unl
Heat Index:   Visibility: 10mi
Dew Point:   Wind: 15mph
Humidity: 87%   Direction: 150°SSE
Pressure: 30.1"   Gusts: 21mph
Location:  47.3121°N, 93.3823°W
Report Text: KGPZ 221355Z AUTO 15013G18KT 10SM CLR 04/02 A3010 RMK AO1
Loading
Personal Weather Stations






























Interactive Weather Map
Tropical Storm Tracking
New forecast layout! Learn more

10-Day Weather Forecast

Advertisements
Track Severe Weather on mobile